Time;durP1;ratioP1;P1;durP2;ratioP2;P2;SDS_P1;SDS_P2;PMS_P1;PMS_P2;Temp;Humidity;BMP_temperature;BMP_pressure;BME280_temperature;BME280_humidity;BME280_pressure;Samples;Min_cycle;Max_cycle;Signal;HPM_P1;HPM_P2
2023/05/27 00:00:01;;;;;;;9.40;7.13;;;;;;;17.61;70.37;99204.22;5090515;28;20089;-38
2023/05/27 00:02:28;;;;;;;10.40;7.10;;;;;;;17.61;70.18;99199.81;5072480;28;20131;-38
2023/05/27 00:04:54;;;;;;;9.60;7.22;;;;;;;17.67;69.87;99196.75;5089217;28;20036;-37
2023/05/27 00:07:20;;;;;;;9.38;6.78;;;;;;;17.70;70.21;99211.44;5090214;28;20040;-36
2023/05/27 00:09:46;;;;;;;10.02;6.63;;;;;;;17.68;70.14;99208.97;5090381;28;20095;-36
2023/05/27 00:12:12;;;;;;;11.25;6.72;;;;;;;17.66;70.21;99207.38;5087696;28;20044;-36
2023/05/27 00:14:38;;;;;;;11.05;7.03;;;;;;;17.58;70.27;99197.38;5088419;28;20043;-37
2023/05/27 00:17:03;;;;;;;8.73;6.32;;;;;;;17.50;70.37;99167.31;5070039;28;20074;-38
2023/05/27 00:19:30;;;;;;;10.43;6.43;;;;;;;17.60;70.60;99187.59;5069849;28;20842;-37
2023/05/27 00:21:57;;;;;;;7.72;6.28;;;;;;;17.60;70.78;99189.41;5087610;28;20085;-38
2023/05/27 00:24:23;;;;;;;9.02;6.68;;;;;;;17.59;70.85;99185.91;5087633;28;20123;-37
2023/05/27 00:26:49;;;;;;;10.60;6.45;;;;;;;17.58;71.32;99181.59;5087743;28;20507;-37
2023/05/27 00:29:18;;;;;;;8.73;6.95;;;;;;;17.58;71.33;99172.88;5052816;28;20069;-36
2023/05/27 00:31:44;;;;;;;;;;;;;;;17.56;71.51;99177.41;5072063;28;20706;-38
2023/05/27 00:34:09;;;;;;;9.75;6.70;;;;;;;17.38;71.75;99148.81;5089289;28;19923;-38
2023/05/27 00:36:36;;;;;;;10.38;7.38;;;;;;;17.45;72.11;99158.91;5089801;28;20054;-37
2023/05/27 00:39:03;;;;;;;8.27;7.15;;;;;;;17.45;72.28;99177.31;5070840;28;20503;-37
2023/05/27 00:41:29;;;;;;;11.13;6.93;;;;;;;17.41;72.73;99170.59;5076303;28;20168;-38
2023/05/27 00:43:58;;;;;;;9.52;7.07;;;;;;;17.40;73.21;99172.38;5071297;28;20093;-37
2023/05/27 00:46:24;;;;;;;10.15;7.30;;;;;;;17.41;73.50;99184.56;5071478;28;20048;-38
2023/05/27 00:48:50;;;;;;;10.60;7.28;;;;;;;17.40;74.04;99182.88;5088179;28;20047;-37
2023/05/27 00:51:16;;;;;;;10.77;7.22;;;;;;;17.38;74.53;99183.00;5089720;28;20564;-37
2023/05/27 00:53:44;;;;;;;10.98;8.02;;;;;;;17.26;74.87;99168.09;5051970;28;20052;-38
2023/05/27 00:56:11;;;;;;;9.77;7.50;;;;;;;17.39;75.21;99194.34;5070726;28;20048;-37
2023/05/27 00:58:37;;;;;;;10.50;7.43;;;;;;;17.26;75.66;99167.25;5066746;28;20329;-38
2023/05/27 01:01:04;;;;;;;8.48;7.03;;;;;;;17.19;75.68;99155.47;5089239;28;20040;-35
2023/05/27 01:03:34;;;;;;;9.93;6.75;;;;;;;17.41;76.22;99186.38;5070963;28;20048;-39
2023/05/27 01:06:28;;;;;;;8.57;6.88;;;;;;;17.38;76.50;99187.41;5071110;28;20064;-35
2023/05/27 01:08:59;;;;;;;8.27;6.93;;;;;;;17.40;76.27;99189.94;5071247;28;20128;-35
2023/05/27 01:11:32;;;;;;;7.45;6.47;;;;;;;17.41;76.86;99200.34;5053897;28;20048;-36
2023/05/27 01:14:03;;;;;;;7.80;7.00;;;;;;;17.40;76.89;99195.19;5050862;28;20048;-36
2023/05/27 01:16:30;;;;;;;8.40;7.43;;;;;;;17.38;76.96;99193.50;5070866;28;20051;-36
2023/05/27 01:18:59;;;;;;;8.38;6.78;;;;;;;17.26;77.22;99177.78;5053701;28;20044;-36
2023/05/27 01:21:27;;;;;;;8.40;7.03;;;;;;;17.38;77.45;99201.38;5070832;28;20551;-39
2023/05/27 01:23:53;;;;;;;10.30;7.10;;;;;;;17.10;77.55;99151.72;5070398;28;20036;-35
2023/05/27 01:26:18;;;;;;;10.43;7.47;;;;;;;17.38;77.55;99203.16;5070925;28;20043;-37
2023/05/27 01:28:45;;;;;;;8.10;6.65;;;;;;;17.32;77.65;99198.38;5069989;28;20404;-36
2023/05/27 01:31:36;;;;;;;10.13;7.20;;;;;;;17.34;77.54;99207.81;5087611;28;20044;-36
2023/05/27 01:34:09;;;;;;;9.23;6.70;;;;;;;17.33;76.99;99205.28;5044107;28;20132;-36
2023/05/27 01:36:45;;;;;;;10.90;7.10;;;;;;;17.34;76.96;99215.69;5052652;28;20134;-36
2023/05/27 01:39:12;;;;;;;10.05;6.80;;;;;;;17.34;76.54;99212.22;5070393;28;20487;-37
2023/05/27 01:41:39;;;;;;;9.48;6.55;;;;;;;17.29;76.00;99209.91;5070734;28;20495;-35
2023/05/27 01:44:07;;;;;;;11.18;7.10;;;;;;;17.34;75.49;99217.47;5069971;28;20073;-36
2023/05/27 01:46:33;;;;;;;8.55;7.15;;;;;;;17.34;75.38;99220.94;5074730;28;20069;-36
2023/05/27 01:48:59;;;;;;;9.40;7.43;;;;;;;17.30;75.03;99214.22;5070267;28;20078;-36
2023/05/27 01:51:25;;;;;;;12.65;7.30;;;;;;;17.27;74.74;99218.88;5070283;28;20044;-37
2023/05/27 01:53:52;;;;;;;11.25;6.95;;;;;;;17.24;74.43;99211.19;5069737;28;20047;-37
2023/05/27 01:56:18;;;;;;;9.85;7.80;;;;;;;17.20;74.25;99210.56;5088395;28;20469;-36
2023/05/27 01:58:44;;;;;;;9.65;7.30;;;;;;;17.16;74.16;99205.63;5069933;28;20040;-37
2023/05/27 02:01:10;;;;;;;9.15;6.63;;;;;;;17.10;73.85;99201.63;5070197;28;20039;-36
2023/05/27 02:03:36;;;;;;;8.45;6.57;;;;;;;17.02;73.56;99203.09;5068901;28;20069;-35
2023/05/27 02:06:03;;;;;;;10.75;6.75;;;;;;;16.92;73.41;99203.72;5068099;28;20044;-36
2023/05/27 02:08:29;;;;;;;8.90;7.03;;;;;;;16.93;73.10;99205.41;5070009;28;20155;-37
2023/05/27 02:10:55;;;;;;;9.75;6.18;;;;;;;16.90;73.21;99208.22;5070271;28;20566;-36
2023/05/27 02:13:21;;;;;;;10.43;6.63;;;;;;;16.88;73.14;99211.91;5088259;28;20176;-37
2023/05/27 02:15:47;;;;;;;9.27;6.80;;;;;;;16.82;72.71;99220.19;5066028;28;20126;-37
2023/05/27 02:18:13;;;;;;;8.15;6.95;;;;;;;16.76;72.78;99210.09;5048910;28;20516;-36
2023/05/27 02:20:39;;;;;;;7.35;6.03;;;;;;;16.75;72.41;99216.28;5048512;28;20047;-37
2023/05/27 02:23:07;;;;;;;10.45;6.30;;;;;;;16.72;72.61;99224.38;5069473;28;20085;-36
2023/05/27 02:25:33;;;;;;;10.30;6.18;;;;;;;16.67;72.00;99227.31;5068157;28;20885;-37
2023/05/27 02:28:02;;;;;;;9.30;6.07;;;;;;;16.51;71.87;99213.50;5069623;28;20128;-36
2023/05/27 02:30:30;;;;;;;10.70;5.85;;;;;;;16.63;71.80;99232.88;5067897;28;20051;-36
2023/05/27 02:32:57;;;;;;;9.40;5.93;;;;;;;16.60;71.55;99233.91;5070475;28;20048;-37
2023/05/27 02:35:23;;;;;;;10.32;6.38;;;;;;;16.59;71.47;99231.41;5054268;28;20131;-36
2023/05/27 02:37:52;;;;;;;10.27;6.15;;;;;;;16.58;71.36;99232.31;5072516;28;20142;-36
2023/05/27 02:40:27;;;;;;;8.18;5.80;;;;;;;16.57;71.23;99241.13;5074148;28;20043;-38
2023/05/27 02:42:56;;;;;;;7.50;5.80;;;;;;;16.56;70.59;99242.91;5074046;28;20070;-36
2023/05/27 02:45:22;;;;;;;6.43;5.13;;;;;;;16.53;70.39;99243.97;5073483;28;20138;-37
2023/05/27 02:47:49;;;;;;;11.60;5.40;;;;;;;16.52;69.86;99236.16;5090932;28;20043;-37
2023/05/27 02:50:16;;;;;;;6.28;4.55;;;;;;;16.49;69.45;99241.59;5073806;28;20135;-36
2023/05/27 02:52:43;;;;;;;9.32;5.18;;;;;;;16.48;68.54;99245.19;5073598;28;20052;-36
2023/05/27 02:55:09;;;;;;;9.05;5.10;;;;;;;16.45;68.00;99254.09;5091318;28;20487;-37
2023/05/27 02:57:35;;;;;;;6.68;4.97;;;;;;;16.46;67.53;99257.56;5073696;28;20124;-36
2023/05/27 03:00:02;;;;;;;8.23;4.80;;;;;;;16.45;67.17;99259.34;5072826;28;20507;-37
2023/05/27 03:02:30;;;;;;;8.68;4.82;;;;;;;16.34;66.64;99246.06;5090553;28;20582;-38
2023/05/27 03:04:57;;;;;;;11.25;4.60;;;;;;;16.44;65.84;99264.69;5073454;28;20032;-36
2023/05/27 03:07:23;;;;;;;5.32;3.97;;;;;;;16.21;65.82;99229.47;5090999;28;20525;-36
2023/05/27 03:09:49;;;;;;;7.47;4.30;;;;;;;16.46;65.36;99270.69;5073052;28;20136;-37
2023/05/27 03:12:15;;;;;;;7.90;4.90;;;;;;;16.48;65.48;99271.44;5091525;28;20127;-37
2023/05/27 03:14:41;;;;;;;9.20;5.28;;;;;;;16.49;65.28;99268.69;5056021;28;20122;-37
2023/05/27 03:17:08;;;;;;;6.35;4.28;;;;;;;16.51;64.68;99273.84;5053136;28;20044;-37
2023/05/27 03:19:33;;;;;;;7.90;5.15;;;;;;;16.53;64.94;99275.44;5058633;28;20804;-36
2023/05/27 03:22:00;;;;;;;6.60;4.28;;;;;;;16.57;64.47;99268.22;5036657;28;20783;-36
2023/05/27 03:24:26;;;;;;;5.40;4.20;;;;;;;16.57;64.20;99270.84;5071971;28;20115;-37
2023/05/27 03:26:53;;;;;;;6.60;4.00;;;;;;;16.60;64.07;99280.31;5071019;28;20558;-36
2023/05/27 03:29:19;;;;;;;5.50;4.63;;;;;;;16.63;64.08;99269.63;5087613;28;20040;-37
2023/05/27 03:31:46;;;;;;;12.13;5.43;;;;;;;16.65;63.73;99284.31;5072501;28;20902;-36
2023/05/27 03:34:16;;;;;;;7.93;5.50;;;;;;;16.67;63.41;99278.97;5056809;28;20092;-37
2023/05/27 03:36:45;;;;;;;9.57;4.38;;;;;;;16.67;63.57;99276.34;5072507;28;20039;-38
2023/05/27 03:39:12;;;;;;;;;;;;;;;16.72;63.26;99279.50;5037277;28;20562;-36
2023/05/27 03:41:43;;;;;;;8.48;4.95;;;;;;;16.70;63.21;99286.63;5068423;28;19970;-38
2023/05/27 03:44:12;;;;;;;6.07;4.10;;;;;;;16.73;62.93;99292.53;5056533;28;20040;-37
2023/05/27 03:46:38;;;;;;;9.95;4.57;;;;;;;16.78;62.86;99290.47;5089988;28;20089;-36
2023/05/27 03:49:04;;;;;;;7.65;4.32;;;;;;;16.78;62.40;99290.47;5072340;28;20126;-37
2023/05/27 03:51:29;;;;;;;5.75;4.15;;;;;;;16.81;62.03;99289.41;5072640;28;20131;-37
2023/05/27 03:53:55;;;;;;;10.32;5.88;;;;;;;16.83;61.82;99283.13;5090679;28;20067;-38
2023/05/27 03:56:21;;;;;;;6.55;3.80;;;;;;;16.85;61.31;99294.34;5072172;28;20085;-39
2023/05/27 03:58:50;;;;;;;8.05;3.58;;;;;;;16.86;61.01;99289.94;5072513;28;20047;-37
2023/05/27 04:01:16;;;;;;;7.38;3.75;;;;;;;16.67;60.58;99253.56;5072588;28;20512;-38
2023/05/27 04:03:43;;;;;;;9.02;4.47;;;;;;;16.93;60.22;99299.94;5056276;28;20040;-36
2023/05/27 04:06:09;;;;;;;7.15;3.63;;;;;;;16.80;59.50;99278.03;5090586;28;20062;-37
2023/05/27 04:08:37;;;;;;;5.80;3.58;;;;;;;16.96;58.90;99303.31;5071809;28;20525;-37
2023/05/27 04:11:03;;;;;;;7.60;3.58;;;;;;;17.00;59.04;99310.88;5072366;28;20040;-36
2023/05/27 04:13:29;;;;;;;9.48;3.63;;;;;;;17.04;58.74;99317.63;5090478;28;20044;-38
2023/05/27 04:15:56;;;;;;;8.25;3.85;;;;;;;17.05;58.76;99310.56;5071792;28;20067;-37
2023/05/27 04:18:22;;;;;;;6.28;3.88;;;;;;;17.09;58.47;99312.91;5090309;28;20036;-37
2023/05/27 04:20:50;;;;;;;5.25;3.35;;;;;;;17.16;58.05;99316.81;5072001;28;20044;-37
2023/05/27 04:23:16;;;;;;;8.97;3.83;;;;;;;17.20;57.93;99312.16;5072057;28;20134;-37
2023/05/27 04:25:43;;;;;;;7.93;3.47;;;;;;;17.24;57.77;99313.66;5071722;28;20040;-36
2023/05/27 04:28:12;;;;;;;6.32;4.00;;;;;;;17.29;57.49;99308.91;5065129;28;20061;-36
2023/05/27 04:30:41;;;;;;;8.90;3.42;;;;;;;17.34;57.00;99310.28;5055507;28;20455;-37
2023/05/27 04:33:21;;;;;;;5.15;3.03;;;;;;;17.42;56.32;99303.69;5071417;28;20139;-37
2023/05/27 04:35:48;;;;;;;4.45;2.78;;;;;;;17.43;55.19;99310.63;5071694;28;20438;-38
2023/05/27 04:38:16;;;;;;;4.93;3.13;;;;;;;17.50;54.61;99303.97;5071337;28;20056;-37
2023/05/27 04:40:55;;;;;;;7.43;3.00;;;;;;;17.56;54.47;99314.94;5052973;28;20399;-37
2023/05/27 04:43:48;;;;;;;10.02;3.50;;;;;;;17.57;54.44;99319.25;5065613;28;20072;-36
2023/05/27 04:46:17;;;;;;;6.68;3.20;;;;;;;17.66;53.88;99323.91;5051922;28;20041;-37
2023/05/27 04:48:44;;;;;;;4.78;2.53;;;;;;;17.73;53.54;99321.69;5071460;28;20131;-36
2023/05/27 04:51:11;;;;;;;6.00;2.72;;;;;;;17.79;52.93;99324.72;5071302;28;20039;-38
2023/05/27 04:53:37;;;;;;;4.47;2.65;;;;;;;17.86;52.16;99326.91;5055920;28;20110;-36
2023/05/27 04:56:04;;;;;;;3.17;2.42;;;;;;;17.90;51.96;99323.16;5050718;28;20052;-40
2023/05/27 04:58:32;;;;;;;9.63;3.03;;;;;;;17.99;52.08;99331.22;5053335;28;20075;-37
2023/05/27 05:00:58;;;;;;;6.20;2.80;;;;;;;18.03;51.71;99332.69;5080386;28;20039;-37
2023/05/27 05:03:50;;;;;;;6.97;3.00;;;;;;;18.10;51.66;99338.38;5075943;28;20044;-37
2023/05/27 05:06:22;;;;;;;5.30;2.50;;;;;;;18.03;50.99;99303.75;5081801;28;20084;-37
2023/05/27 05:08:48;;;;;;;7.50;2.40;;;;;;;18.12;50.66;99310.97;5079957;28;20104;-37
2023/05/27 05:11:14;;;;;;;4.82;2.53;;;;;;;18.27;49.96;99335.34;5081065;28;20035;-37
2023/05/27 05:13:42;;;;;;;6.20;2.50;;;;;;;18.32;49.27;99341.13;5078946;28;20063;-38
2023/05/27 05:16:07;;;;;;;6.75;2.50;;;;;;;18.37;48.77;99340.84;5071173;28;20083;-37
2023/05/27 05:18:33;;;;;;;5.03;2.05;;;;;;;18.44;48.37;99339.41;5066516;28;20041;-37
2023/05/27 05:20:59;;;;;;;6.35;2.10;;;;;;;18.50;48.11;99341.63;5070316;28;20040;-37
2023/05/27 05:23:33;;;;;;;3.90;1.90;;;;;;;18.50;47.23;99334.56;5070776;28;20054;-37
2023/05/27 05:26:05;;;;;;;5.05;2.45;;;;;;;18.55;46.24;99332.47;5054146;28;20036;-36
2023/05/27 05:28:34;;;;;;;5.43;2.22;;;;;;;18.61;46.32;99336.44;5070092;28;20048;-37
2023/05/27 05:31:00;;;;;;;3.45;2.17;;;;;;;18.70;45.74;99334.94;5050332;28;20039;-37
2023/05/27 05:33:26;;;;;;;23.15;12.93;;;;;;;18.81;45.30;99340.25;5053660;28;20134;-37
2023/05/27 05:35:53;;;;;;;10.07;4.20;;;;;;;18.90;45.49;99340.41;5069002;28;20589;-37
2023/05/27 05:38:27;;;;;;;6.60;3.40;;;;;;;19.02;45.03;99346.56;5054049;28;20522;-36
2023/05/27 05:40:54;;;;;;;4.28;2.25;;;;;;;19.15;44.58;99343.88;5070195;28;20708;-37
2023/05/27 05:43:21;;;;;;;6.10;2.05;;;;;;;19.27;44.36;99348.19;5070106;28;20123;-37
2023/05/27 05:45:48;;;;;;;6.40;1.80;;;;;;;19.33;43.54;99356.50;5070666;28;20047;-37
2023/05/27 05:48:17;;;;;;;5.15;2.10;;;;;;;19.40;42.95;99354.25;5070121;28;20104;-37
2023/05/27 05:50:43;;;;;;;5.47;2.05;;;;;;;19.51;42.66;99358.75;5070440;28;20578;-39
2023/05/27 05:53:10;;;;;;;6.13;1.92;;;;;;;19.49;42.64;99337.75;5069415;28;20806;-36
2023/05/27 05:55:37;;;;;;;4.32;2.33;;;;;;;19.57;42.20;99338.03;5092373;28;20044;-37
2023/05/27 05:58:03;;;;;;;4.72;1.80;;;;;;;19.83;42.03;99360.59;5076821;28;20054;-37
2023/05/27 06:00:30;;;;;;;7.28;1.80;;;;;;;19.82;42.05;99339.59;5069819;28;20173;-37
2023/05/27 06:03:16;;;;;;;5.20;1.70;;;;;;;20.07;42.05;99352.53;5069247;28;20052;-37
2023/05/27 06:05:46;;;;;;;7.72;1.63;;;;;;;20.22;42.07;99367.16;5075820;28;20055;-38
2023/05/27 06:08:12;;;;;;;7.35;2.20;;;;;;;20.37;41.56;99365.16;5073883;28;20039;-37
2023/05/27 06:10:42;;;;;;;6.82;2.20;;;;;;;20.53;41.39;99375.31;5053398;28;20036;-38
2023/05/27 06:13:10;;;;;;;3.50;1.92;;;;;;;20.65;41.41;99353.22;5075913;28;20044;-37
2023/05/27 06:15:38;;;;;;;4.35;1.73;;;;;;;20.52;40.60;99326.09;5049583;28;20467;-37
2023/05/27 06:18:06;;;;;;;5.15;1.85;;;;;;;20.75;39.71;99364.72;5044725;28;20040;-36
2023/05/27 06:20:32;;;;;;;6.70;1.75;;;;;;;20.70;39.00;99365.09;5069158;28;20044;-37
2023/05/27 06:22:58;;;;;;;10.25;2.15;;;;;;;20.66;38.55;99346.97;5053279;28;20052;-37
2023/05/27 06:25:43;;;;;;;5.95;2.00;;;;;;;21.05;38.43;99372.75;5087834;28;20460;-37
2023/05/27 06:28:10;;;;;;;4.68;1.73;;;;;;;21.42;38.37;99369.75;5052754;28;20086;-36
2023/05/27 06:30:37;;;;;;;5.65;1.83;;;;;;;21.84;37.91;99381.97;5070410;28;20047;-37
2023/05/27 06:33:07;;;;;;;4.47;1.75;;;;;;;22.11;36.96;99357.63;5074894;28;20051;-38
2023/05/27 06:35:33;;;;;;;9.65;2.17;;;;;;;22.76;36.15;99377.50;5063213;28;20047;-37
2023/05/27 06:38:00;;;;;;;3.03;2.00;;;;;;;23.56;35.20;99372.75;5075751;28;20044;-37
2023/05/27 06:40:26;;;;;;;5.38;1.83;;;;;;;24.16;33.56;99378.59;5057114;28;20520;-38
2023/05/27 06:42:53;;;;;;;3.83;1.70;;;;;;;24.79;32.09;99384.03;5069088;28;20062;-37
2023/05/27 06:45:46;;;;;;;5.80;2.17;;;;;;;25.66;31.01;99385.03;5069284;28;20130;-38
2023/05/27 06:48:27;;;;;;;3.55;2.00;;;;;;;26.57;30.39;99380.03;5068865;28;20071;-36
2023/05/27 06:50:53;;;;;;;3.65;1.88;;;;;;;27.36;29.29;99388.38;5051712;28;20100;-38
2023/05/27 06:53:19;;;;;;;7.30;2.22;;;;;;;28.25;28.06;99387.44;5049067;28;20056;-37
2023/05/27 06:55:55;;;;;;;4.25;2.08;;;;;;;29.28;27.19;99385.38;5063975;28;20111;-38
2023/05/27 06:58:41;;;;;;;3.88;2.08;;;;;;;30.29;26.13;99375.03;5085426;28;20423;-39
2023/05/27 07:01:11;;;;;;;5.53;2.78;;;;;;;31.20;25.19;99377.16;5066733;28;20040;-37
2023/05/27 07:03:42;;;;;;;3.35;1.88;;;;;;;32.03;23.97;99375.59;5058005;28;20053;-37
2023/05/27 07:06:10;;;;;;;4.78;2.28;;;;;;;32.69;23.00;99377.59;5059080;28;20037;-38
2023/05/27 07:08:46;;;;;;;6.28;2.20;;;;;;;33.35;22.47;99371.53;5073942;28;20044;-39
2023/05/27 07:11:22;;;;;;;5.43;2.33;;;;;;;34.07;21.58;99373.38;5064324;28;20044;-39
2023/05/27 07:13:48;;;;;;;4.80;2.20;;;;;;;34.56;21.09;99368.22;5035479;28;20048;-38
2023/05/27 07:16:19;;;;;;;7.38;2.33;;;;;;;35.01;20.58;99347.44;5040507;28;20056;-38
2023/05/27 07:18:45;;;;;;;4.22;1.88;;;;;;;35.50;19.71;99356.63;5056958;28;20131;-37
2023/05/27 07:21:12;;;;;;;6.60;2.40;;;;;;;36.13;19.25;99375.41;5073586;28;20055;-37
2023/05/27 07:23:38;;;;;;;4.68;2.20;;;;;;;35.86;17.47;99375.69;5096062;28;20039;-38
2023/05/27 07:26:19;;;;;;;6.15;2.33;;;;;;;36.14;17.42;99371.66;5072125;28;20116;-40
2023/05/27 07:28:46;;;;;;;3.90;2.30;;;;;;;36.32;16.69;99359.00;5074551;28;20046;-37
2023/05/27 07:31:26;;;;;;;3.72;1.92;;;;;;;36.69;15.67;99377.94;5079060;28;20044;-37
2023/05/27 07:33:57;;;;;;;5.43;2.42;;;;;;;36.67;15.27;99378.16;5059256;28;20104;-38
2023/05/27 07:36:23;;;;;;;5.53;2.83;;;;;;;37.06;15.46;99370.53;5065478;28;20052;-38
2023/05/27 07:38:49;;;;;;;6.63;2.40;;;;;;;37.52;14.94;99378.78;5088931;28;20068;-36
2023/05/27 07:41:15;;;;;;;10.65;2.53;;;;;;;37.87;15.02;99375.25;5077296;28;20039;-37
2023/05/27 07:43:42;;;;;;;9.02;2.85;;;;;;;38.11;14.78;99375.03;5081238;28;20038;-39
2023/05/27 07:46:08;;;;;;;3.83;2.35;;;;;;;37.96;14.20;99381.97;5090904;28;20192;-39
2023/05/27 07:48:36;;;;;;;3.38;2.40;;;;;;;37.91;14.26;99366.41;5072878;28;20040;-39
2023/05/27 07:51:02;;;;;;;5.53;2.72;;;;;;;38.18;14.54;99364.03;5072203;28;20046;-38
2023/05/27 07:53:28;;;;;;;10.50;2.95;;;;;;;38.65;14.46;99367.47;5053684;28;20439;-39
2023/05/27 07:55:54;;;;;;;6.18;2.70;;;;;;;38.61;14.30;99363.59;5077128;28;20045;-38
2023/05/27 07:58:20;;;;;;;8.75;3.00;;;;;;;38.77;14.51;99370.16;5070891;28;20668;-38
2023/05/27 08:01:01;;;;;;;6.18;2.83;;;;;;;38.94;14.88;99377.28;5071016;28;20077;-38
2023/05/27 08:03:28;;;;;;;4.60;2.90;;;;;;;38.83;14.82;99366.47;5055852;28;20066;-37
2023/05/27 08:06:04;;;;;;;6.28;2.63;;;;;;;38.44;14.61;99376.25;5068338;28;20287;-37
2023/05/27 08:08:42;;;;;;;7.63;2.58;;;;;;;38.93;14.75;99378.38;5073851;28;20047;-37
2023/05/27 08:11:26;;;;;;;4.95;2.70;;;;;;;39.26;14.14;99355.81;5088252;28;20042;-37
2023/05/27 08:14:04;;;;;;;6.35;2.83;;;;;;;39.52;14.46;99380.78;5062029;28;20074;-36
2023/05/27 08:16:34;;;;;;;6.40;2.83;;;;;;;39.88;14.27;99382.16;5082224;28;20082;-38
2023/05/27 08:19:08;;;;;;;4.10;2.63;;;;;;;40.10;13.96;99366.66;5076690;28;20044;-37
2023/05/27 08:22:03;;;;;;;5.22;2.67;;;;;;;39.98;13.81;99390.47;5079696;28;20052;-37
2023/05/27 08:24:49;;;;;;;5.18;3.08;;;;;;;39.69;14.13;99357.06;5080692;28;20120;-37
2023/05/27 08:28:02;;;;;;;5.30;2.80;;;;;;;39.93;14.17;99374.91;5046644;28;20031;-36
2023/05/27 08:30:50;;;;;;;4.75;3.00;;;;;;;39.98;13.89;99377.69;5026877;28;20044;-37
2023/05/27 08:33:36;;;;;;;4.97;2.90;;;;;;;40.42;13.98;99380.44;5081978;28;20044;-37
2023/05/27 08:36:03;;;;;;;5.20;2.90;;;;;;;40.63;13.91;99379.66;5061648;28;20036;-37
2023/05/27 08:38:30;;;;;;;4.18;2.80;;;;;;;40.95;13.71;99377.00;5055146;28;20040;-37
2023/05/27 08:41:16;;;;;;;11.02;2.90;;;;;;;40.95;14.02;99379.72;5097127;28;20054;-37
2023/05/27 08:43:43;;;;;;;4.07;3.10;;;;;;;40.82;13.87;99377.41;5082058;28;20040;-37
2023/05/27 08:46:11;;;;;;;6.55;3.28;;;;;;;40.94;13.77;99375.34;5064711;28;20031;-37
2023/05/27 08:48:37;;;;;;;3.85;2.83;;;;;;;41.20;13.67;99379.16;5073038;28;20398;-37
2023/05/27 08:51:03;;;;;;;3.92;2.90;;;;;;;41.44;14.01;99380.47;5068511;28;20063;-37
2023/05/27 08:53:31;;;;;;;4.75;2.90;;;;;;;41.28;13.36;99382.25;5050268;28;20137;-39
2023/05/27 08:55:58;;;;;;;4.57;3.20;;;;;;;41.39;13.59;99361.31;5076474;28;20260;-37
2023/05/27 08:58:24;;;;;;;9.18;2.90;;;;;;;41.67;13.53;99371.91;5076573;28;20040;-36
2023/05/27 09:00:54;;;;;;;4.95;2.90;;;;;;;41.61;13.29;99372.16;5094325;28;20071;-36
2023/05/27 09:03:23;;;;;;;4.70;3.22;;;;;;;41.76;13.55;99364.91;5070849;28;20118;-37
2023/05/27 09:05:49;;;;;;;8.15;2.90;;;;;;;41.39;13.05;99351.22;5079031;28;20067;-36
2023/05/27 09:08:15;;;;;;;3.47;2.90;;;;;;;40.80;13.46;99365.94;5063390;28;20079;-37
2023/05/27 09:10:42;;;;;;;5.15;3.00;;;;;;;40.99;13.72;99357.13;5095943;28;20044;-36
2023/05/27 09:13:08;;;;;;;;;;;;;;;40.58;13.57;99364.03;5095042;28;20079;-36
2023/05/27 09:15:34;;;;;;;3.60;3.03;;;;;;;40.76;13.88;99343.00;5090373;28;19951;-38
2023/05/27 09:18:02;;;;;;;4.15;2.92;;;;;;;41.57;13.54;99369.13;5071002;28;20044;-36
2023/05/27 09:20:29;;;;;;;6.77;3.20;;;;;;;41.86;13.94;99364.13;5069359;28;20067;-37
2023/05/27 09:23:00;;;;;;;5.97;3.25;;;;;;;42.26;13.28;99372.56;5086867;28;20515;-36
2023/05/27 09:25:30;;;;;;;4.32;3.20;;;;;;;42.59;13.34;99376.00;5092616;28;20046;-39
2023/05/27 09:27:56;;;;;;;7.07;3.30;;;;;;;42.66;13.03;99373.81;5047023;28;20035;-36
2023/05/27 09:30:23;;;;;;;10.15;3.20;;;;;;;42.80;12.79;99377.72;5099342;28;20080;-36
2023/05/27 09:32:50;;;;;;;4.68;3.35;;;;;;;43.00;12.57;99355.88;5073968;28;20047;-37
2023/05/27 09:35:17;;;;;;;4.50;3.27;;;;;;;43.09;12.60;99373.41;5076649;28;20126;-37
2023/05/27 09:37:45;;;;;;;8.48;3.33;;;;;;;42.99;12.48;99365.16;5070505;28;20499;-37
2023/05/27 09:40:12;;;;;;;4.22;3.60;;;;;;;43.23;12.61;99368.25;5069431;28;20068;-37
2023/05/27 09:42:48;;;;;;;4.97;3.25;;;;;;;43.24;12.27;99360.81;5059334;28;20035;-36
2023/05/27 09:45:21;;;;;;;3.17;2.70;;;;;;;42.70;12.12;99363.22;5059474;28;20043;-36
2023/05/27 09:47:48;;;;;;;10.02;3.10;;;;;;;42.57;12.65;99361.75;5087293;28;20123;-36
2023/05/27 09:50:16;;;;;;;8.40;2.75;;;;;;;42.54;12.06;99367.78;5070143;28;20063;-36
2023/05/27 09:52:47;;;;;;;9.13;3.40;;;;;;;42.52;11.79;99369.94;5053520;28;20059;-36
2023/05/27 09:55:14;;;;;;;4.03;3.05;;;;;;;42.59;12.25;99378.75;5036741;28;20506;-36
2023/05/27 09:57:41;;;;;;;11.63;3.00;;;;;;;42.88;12.22;99370.88;5068810;28;20044;-37
2023/05/27 10:00:11;;;;;;;4.97;3.33;;;;;;;42.95;12.11;99379.66;5068164;28;20142;-36
2023/05/27 10:02:47;;;;;;;7.50;3.30;;;;;;;43.17;12.01;99376.72;5083866;28;20044;-37
2023/05/27 10:05:15;;;;;;;4.80;3.30;;;;;;;43.31;11.96;99377.81;5075193;28;20130;-41
2023/05/27 10:07:45;;;;;;;4.30;3.67;;;;;;;43.46;12.20;99386.84;5085717;28;20042;-35
2023/05/27 10:10:17;;;;;;;4.88;3.42;;;;;;;43.48;12.25;99381.13;5069748;28;20089;-36
2023/05/27 10:12:46;;;;;;;4.65;3.03;;;;;;;43.33;12.51;99381.94;5070115;28;20040;-37
2023/05/27 10:15:26;;;;;;;5.35;3.17;;;;;;;42.77;12.80;99364.56;5071235;28;20403;-35
2023/05/27 10:17:55;;;;;;;7.30;4.53;;;;;;;42.56;13.02;99382.81;5097084;28;20051;-36
2023/05/27 10:20:28;;;;;;;4.60;3.20;;;;;;;42.54;13.00;99387.75;5067504;28;20127;-37
2023/05/27 10:22:54;;;;;;;8.23;3.35;;;;;;;42.36;13.05;99366.34;5070414;28;20039;-36
2023/05/27 10:25:20;;;;;;;4.15;3.00;;;;;;;42.76;12.87;99384.84;5086613;28;20082;-35
2023/05/27 10:27:47;;;;;;;3.30;3.00;;;;;;;42.87;12.44;99385.69;5070271;28;20131;-37
2023/05/27 10:30:14;;;;;;;3.45;2.92;;;;;;;42.72;12.77;99388.34;5049403;28;20052;-36
2023/05/27 10:32:44;;;;;;;;;;;;;;;43.00;12.58;99385.16;5063261;28;20044;-36
2023/05/27 10:35:10;;;;;;;4.70;3.05;;;;;;;42.95;12.63;99365.97;5032619;28;20370;-37
2023/05/27 10:37:36;;;;;;;5.32;3.28;;;;;;;42.56;12.37;99385.56;5083291;28;20101;-36
2023/05/27 10:40:06;;;;;;;11.65;4.22;;;;;;;42.41;12.60;99377.28;5050617;28;20036;-45
2023/05/27 10:42:32;;;;;;;7.28;3.75;;;;;;;42.72;12.40;99359.09;5055537;28;20072;-39
2023/05/27 10:45:05;;;;;;;7.88;3.30;;;;;;;42.83;12.31;99365.41;5084876;28;20036;-47
2023/05/27 10:47:36;;;;;;;6.32;3.00;;;;;;;43.09;12.55;99378.06;5072853;28;20035;-36
2023/05/27 10:50:11;;;;;;;6.75;3.30;;;;;;;43.02;12.20;99382.97;5075689;28;20352;-36
2023/05/27 10:52:38;;;;;;;4.82;3.20;;;;;;;42.98;11.85;99373.63;5089041;28;20055;-36
2023/05/27 10:55:05;;;;;;;;;;;;;;;43.06;12.14;99375.84;5089359;28;20682;-36
2023/05/27 10:57:32;;;;;;;5.93;2.92;;;;;;;43.18;11.97;99357.28;5090839;28;19915;-36
2023/05/27 11:00:08;;;;;;;4.25;3.00;;;;;;;42.94;12.49;99370.63;5065519;28;20101;-37
2023/05/27 11:02:37;;;;;;;3.78;2.95;;;;;;;43.14;12.42;99358.09;5071780;28;20048;-36
2023/05/27 11:05:11;;;;;;;11.32;3.35;;;;;;;43.57;12.26;99367.69;5055000;28;20097;-35
2023/05/27 11:07:40;;;;;;;6.78;3.40;;;;;;;43.73;12.05;99367.38;5073106;28;20504;-36
2023/05/27 11:10:10;;;;;;;7.30;3.08;;;;;;;43.98;11.69;99366.53;5092005;28;20126;-36
2023/05/27 11:12:36;;;;;;;8.10;3.22;;;;;;;44.06;11.81;99373.38;5073868;28;20423;-36
2023/05/27 11:15:02;;;;;;;11.25;3.38;;;;;;;43.98;11.73;99369.28;5073850;28;20139;-36
2023/05/27 11:17:30;;;;;;;4.85;2.50;;;;;;;43.65;11.76;99359.75;5073353;28;20044;-36
2023/05/27 11:19:55;;;;;;;4.30;3.05;;;;;;;42.27;12.67;99343.31;5091669;28;20535;-36
2023/05/27 11:22:21;;;;;;;3.85;3.17;;;;;;;42.74;12.46;99365.13;5073432;28;20028;-35
2023/05/27 11:25:01;;;;;;;7.30;3.25;;;;;;;42.46;12.09;99371.03;5090621;28;20044;-36
2023/05/27 11:27:35;;;;;;;3.92;2.92;;;;;;;42.82;12.39;99363.75;5090979;28;20044;-36
2023/05/27 11:30:09;;;;;;;6.25;2.70;;;;;;;42.84;12.38;99362.41;5056880;28;20133;-37
2023/05/27 11:32:36;;;;;;;6.13;3.08;;;;;;;40.68;13.50;99348.88;5091646;28;20043;-36
2023/05/27 11:35:02;;;;;;;8.07;2.85;;;;;;;39.91;13.33;99325.31;5073290;28;20500;-37
2023/05/27 11:37:34;;;;;;;4.55;2.67;;;;;;;40.19;13.15;99349.69;5073152;28;20178;-37
2023/05/27 11:40:00;;;;;;;3.90;2.80;;;;;;;40.84;13.34;99351.50;5091597;28;20044;-36
2023/05/27 11:42:28;;;;;;;6.13;2.50;;;;;;;41.10;13.06;99351.78;5091344;28;20048;-39